Time;durP1;ratioP1;P1;durP2;ratioP2;P2;SDS_P1;SDS_P2;PMS_P1;PMS_P2;Temp;Humidity;BMP_temperature;BMP_pressure;BME280_temperature;BME280_humidity;BME280_pressure;Samples;Min_cycle;Max_cycle;Signal;HPM_P1;HPM_P2
2022/12/30 00:00:56;;;;;;;1.93;0.70;;;;;;;10.50;76.84;100247.56;5013623;28;20408;-72
2022/12/30 00:03:21;;;;;;;1.87;0.60;;;;;;;10.46;76.96;100247.25;5013875;28;20763;-72
2022/12/30 00:05:47;;;;;;;4.13;0.40;;;;;;;10.44;76.91;100251.28;5013560;28;20408;-72
2022/12/30 00:10:56;;;;;;;2.92;0.52;;;;;;;10.36;77.31;100247.09;5013791;28;20416;-72
2022/12/30 00:33:07;;;;;;;1.20;0.43;;;;;;;10.37;77.23;100278.53;5013458;28;20444;-72
2022/12/30 00:35:33;;;;;;;1.10;0.50;;;;;;;10.33;77.42;100288.22;5013063;28;20404;-72
2022/12/30 00:37:59;;;;;;;1.05;0.50;;;;;;;10.31;77.57;100290.34;5013024;28;20397;-72
2022/12/30 00:40:24;;;;;;;1.40;0.40;;;;;;;10.27;77.73;100286.50;5012731;28;20864;-73
2022/12/30 00:43:07;;;;;;;0.80;0.30;;;;;;;10.24;77.71;100282.38;5011720;28;20388;-72
2022/12/30 00:45:33;;;;;;;1.35;0.35;;;;;;;10.20;77.70;100286.69;5012695;28;20431;-72
2022/12/30 00:47:59;;;;;;;1.08;0.32;;;;;;;10.18;77.95;100294.22;5012880;28;20393;-72
2022/12/30 00:58:36;;;;;;;1.50;0.50;;;;;;;10.01;78.49;100293.34;5011738;28;20383;-72
2022/12/30 01:01:01;;;;;;;1.37;0.63;;;;;;;10.00;78.62;100294.44;5012520;28;20763;-72
2022/12/30 01:03:26;;;;;;;4.17;0.70;;;;;;;9.98;78.38;100295.75;5012442;28;20443;-72
2022/12/30 01:05:52;;;;;;;3.50;0.97;;;;;;;9.97;78.62;100289.50;5012416;28;20931;-72
2022/12/30 01:08:17;;;;;;;1.40;0.70;;;;;;;9.95;78.68;100288.91;5011589;28;20405;-72
2022/12/30 01:10:42;;;;;;;3.30;0.53;;;;;;;9.89;78.72;100285.31;5012108;28;20466;-72
2022/12/30 01:13:08;;;;;;;4.50;0.57;;;;;;;9.80;78.92;100300.31;5012339;28;20864;-72
2022/12/30 01:15:34;;;;;;;3.78;1.10;;;;;;;9.82;78.78;100314.41;5012341;28;20416;-72
2022/12/30 01:17:59;;;;;;;3.25;0.80;;;;;;;9.85;78.55;100315.78;5012256;28;20427;-72
2022/12/30 01:20:25;;;;;;;2.10;0.60;;;;;;;9.86;78.60;100314.75;5010793;28;20483;-72
2022/12/30 01:22:50;;;;;;;2.53;0.73;;;;;;;9.77;78.55;100317.03;5011143;28;20400;-72
2022/12/30 01:25:15;;;;;;;4.20;0.77;;;;;;;9.72;78.88;100318.81;4997909;28;20393;-72
2022/12/30 01:27:41;;;;;;;3.97;1.17;;;;;;;9.62;79.00;100314.03;5012342;28;20880;-72
2022/12/30 01:30:07;;;;;;;2.83;0.93;;;;;;;9.50;78.89;100317.84;5012182;28;20389;-72
2022/12/30 01:32:35;;;;;;;3.45;1.20;;;;;;;9.45;79.68;100309.66;5011848;28;20483;-72
2022/12/30 01:35:00;;;;;;;4.13;1.00;;;;;;;9.36;79.78;100320.00;5012011;28;20435;-72
2022/12/30 01:37:26;;;;;;;2.90;0.60;;;;;;;9.35;79.74;100319.19;5012190;28;20388;-72
2022/12/30 01:39:51;;;;;;;2.50;0.65;;;;;;;9.45;79.30;100318.56;5011880;28;20467;-72
2022/12/30 01:42:22;;;;;;;4.37;1.10;;;;;;;9.49;79.10;100313.50;5012005;28;20484;-72
2022/12/30 01:44:56;;;;;;;5.00;0.50;;;;;;;9.52;79.30;100305.72;5010947;28;20748;-72
2022/12/30 01:47:25;;;;;;;6.07;1.55;;;;;;;9.50;78.91;100307.03;5011898;28;20385;-72
2022/12/30 01:49:54;;;;;;;4.35;1.33;;;;;;;9.45;79.07;100313.16;5011890;28;20388;-72
2022/12/30 01:52:23;;;;;;;2.97;1.00;;;;;;;9.42;79.08;100318.25;5011909;28;20451;-72
2022/12/30 01:54:50;;;;;;;4.38;1.15;;;;;;;9.43;79.28;100314.47;5011695;28;20849;-72
2022/12/30 01:57:16;;;;;;;3.03;1.02;;;;;;;9.44;79.25;100316.94;5011915;28;20385;-72
2022/12/30 01:59:43;;;;;;;2.70;0.93;;;;;;;9.46;78.92;100317.50;5011792;28;20397;-72
2022/12/30 02:02:09;;;;;;;2.63;0.98;;;;;;;9.47;79.27;100335.38;5011640;28;20420;-72
2022/12/30 02:04:35;;;;;;;4.82;0.88;;;;;;;9.47;79.10;100334.56;5011902;28;20395;-72
2022/12/30 02:07:07;;;;;;;3.80;1.35;;;;;;;9.46;79.26;100338.31;5011775;28;20392;-72
2022/12/30 02:09:34;;;;;;;2.60;1.02;;;;;;;9.33;79.32;100336.72;5011575;28;20393;-72
2022/12/30 02:12:01;;;;;;;3.63;0.70;;;;;;;9.34;79.57;100338.38;5011630;28;20451;-72
2022/12/30 02:14:30;;;;;;;4.15;1.20;;;;;;;9.12;79.31;100335.47;4997572;28;20393;-72
2022/12/30 02:17:16;;;;;;;3.42;0.90;;;;;;;8.85;80.58;100318.97;5011596;28;20794;-72
2022/12/30 02:19:58;;;;;;;2.73;0.80;;;;;;;8.79;81.01;100327.19;5011702;28;20404;-72
2022/12/30 02:22:35;;;;;;;2.92;0.70;;;;;;;8.95;80.51;100326.47;5000820;28;20417;-72
2022/12/30 02:25:27;;;;;;;4.85;1.13;;;;;;;9.09;80.23;100338.66;5015348;28;20483;-72
2022/12/30 02:27:58;;;;;;;3.80;0.90;;;;;;;9.12;79.69;100338.16;5013502;28;20435;-72
2022/12/30 02:30:35;;;;;;;2.80;0.70;;;;;;;9.17;79.73;100338.28;5015357;28;20437;-72
2022/12/30 02:33:21;;;;;;;2.03;0.95;;;;;;;9.21;79.51;100341.34;5015248;28;20451;-72
2022/12/30 02:36:07;;;;;;;0.80;0.60;;;;;;;9.19;80.28;100333.47;5014210;28;20395;-72
2022/12/30 02:38:48;;;;;;;1.30;0.50;;;;;;;9.22;80.32;100332.97;5009770;28;20405;-72
2022/12/30 02:47:02;;;;;;;1.90;0.52;;;;;;;9.39;80.23;100338.47;5008901;28;20424;-72
2022/12/30 02:49:30;;;;;;;2.90;0.82;;;;;;;9.39;80.54;100346.56;5015024;28;20426;-72
2022/12/30 02:52:15;;;;;;;0.63;0.60;;;;;;;9.44;80.08;100345.88;5013708;28;20472;-72
2022/12/30 02:54:47;;;;;;;1.65;0.60;;;;;;;9.46;80.26;100358.09;5014982;28;20880;-72
2022/12/30 02:57:21;;;;;;;0.88;0.70;;;;;;;9.46;79.92;100351.84;5014908;28;20847;-72
2022/12/30 03:06:25;;;;;;;0.90;0.40;;;;;;;9.54;80.16;100389.34;4993059;28;20813;-72
2022/12/30 03:09:09;;;;;;;0.70;0.50;;;;;;;9.54;80.07;100390.19;5010937;28;20405;-72
2022/12/30 03:11:51;;;;;;;1.00;0.60;;;;;;;9.51;80.41;100387.13;5013294;28;20405;-72
2022/12/30 03:14:26;;;;;;;0.60;0.50;;;;;;;9.47;80.25;100389.50;5014625;28;20748;-72
2022/12/30 03:17:01;;;;;;;0.60;0.60;;;;;;;9.44;80.33;100386.44;5014396;28;20396;-72
2022/12/30 03:19:32;;;;;;;1.73;0.60;;;;;;;9.42;80.46;100383.97;5006551;28;20401;-72
2022/12/30 03:21:59;;;;;;;0.55;0.55;;;;;;;9.33;80.77;100382.69;5014582;28;20421;-72
2022/12/30 03:27:17;;;;;;;0.50;0.50;;;;;;;9.27;80.64;100376.38;5014594;28;20859;-72
2022/12/30 03:29:46;;;;;;;1.20;0.53;;;;;;;9.24;80.73;100367.91;5014466;28;20475;-72
2022/12/30 03:32:14;;;;;;;0.73;0.70;;;;;;;9.20;80.85;100362.16;5013623;28;20499;-72
2022/12/30 03:34:40;;;;;;;0.50;0.50;;;;;;;9.16;80.64;100360.16;5012893;28;20768;-72
2022/12/30 03:37:18;;;;;;;3.63;0.70;;;;;;;8.99;80.54;100356.56;5014233;28;20400;-72
2022/12/30 03:39:58;;;;;;;1.60;0.60;;;;;;;8.69;82.01;100345.88;5013940;28;20400;-72
2022/12/30 03:42:24;;;;;;;1.00;0.80;;;;;;;8.61;82.46;100347.03;5013946;28;20511;-72
2022/12/30 03:44:50;;;;;;;0.88;0.60;;;;;;;8.61;82.02;100346.22;5014025;28;20422;-72
2022/12/30 03:47:18;;;;;;;0.60;0.60;;;;;;;8.62;81.76;100334.38;5014043;28;20832;-72
2022/12/30 03:49:44;;;;;;;1.13;0.60;;;;;;;8.61;81.48;100336.25;5013965;28;20392;-72
2022/12/30 03:52:15;;;;;;;0.70;0.70;;;;;;;8.61;81.71;100336.25;5013733;28;20898;-72
2022/12/30 03:54:41;;;;;;;0.68;0.68;;;;;;;8.65;81.49;100323.09;5013922;28;20392;-72
2022/12/30 03:57:07;;;;;;;1.00;0.73;;;;;;;8.69;81.61;100330.47;5013761;28;20432;-72
2022/12/30 03:59:32;;;;;;;1.53;0.67;;;;;;;8.74;80.67;100329.78;5012599;28;20420;-72
2022/12/30 04:01:58;;;;;;;0.80;0.80;;;;;;;8.62;81.52;100331.66;5013599;28;20499;-72
2022/12/30 04:04:23;;;;;;;1.90;1.10;;;;;;;8.71;81.10;100330.25;5013556;28;20484;-72
2022/12/30 04:06:48;;;;;;;0.77;0.77;;;;;;;8.75;80.95;100336.84;5013547;28;20396;-72
2022/12/30 04:09:13;;;;;;;1.30;0.60;;;;;;;8.76;80.72;100330.34;5013414;28;20401;-73
2022/12/30 04:11:39;;;;;;;1.20;0.70;;;;;;;8.77;80.43;100329.28;5005306;28;20398;-72
2022/12/30 04:14:04;;;;;;;1.40;0.60;;;;;;;8.74;80.57;100343.28;5012518;28;20393;-72
2022/12/30 04:16:29;;;;;;;1.70;0.80;;;;;;;8.73;80.35;100338.94;5012338;28;20824;-72
2022/12/30 04:18:55;;;;;;;1.90;0.60;;;;;;;8.70;80.75;100337.53;5013519;28;20780;-72
2022/12/30 04:21:20;;;;;;;1.17;0.90;;;;;;;8.69;80.52;100337.78;5013341;28;20752;-72
2022/12/30 04:23:46;;;;;;;2.53;0.70;;;;;;;8.69;80.63;100333.16;5013313;28;20397;-72
2022/12/30 04:26:11;;;;;;;1.50;0.87;;;;;;;8.66;80.47;100330.94;5013274;28;20462;-72
2022/12/30 04:28:36;;;;;;;2.97;1.57;;;;;;;8.63;80.13;100325.19;5013261;28;20396;-72
2022/12/30 04:31:02;;;;;;;0.70;0.70;;;;;;;8.60;80.17;100315.69;5012919;28;20405;-72
2022/12/30 04:33:27;;;;;;;1.33;0.90;;;;;;;8.60;80.21;100323.78;5013016;28;20451;-72
2022/12/30 04:35:52;;;;;;;4.00;1.37;;;;;;;8.56;80.03;100325.31;5012941;28;20380;-72
2022/12/30 04:38:18;;;;;;;2.50;1.00;;;;;;;8.52;80.43;100323.31;5019268;28;20388;-72
2022/12/30 04:40:43;;;;;;;0.57;0.50;;;;;;;8.49;80.26;100321.09;5010364;28;20409;-72
2022/12/30 04:43:08;;;;;;;1.95;0.93;;;;;;;8.34;80.21;100319.66;5011006;28;20401;-72
2022/12/30 04:45:34;;;;;;;0.87;0.60;;;;;;;8.10;81.22;100323.34;5011627;28;20490;-72
2022/12/30 04:47:59;;;;;;;2.80;0.70;;;;;;;8.15;81.42;100323.50;5012943;28;20733;-72
2022/12/30 04:50:24;;;;;;;1.03;0.93;;;;;;;8.28;81.34;100325.19;5012712;28;20397;-72
2022/12/30 04:52:50;;;;;;;2.30;0.73;;;;;;;8.37;80.78;100322.94;5012764;28;20879;-72
2022/12/30 04:55:15;;;;;;;1.30;1.00;;;;;;;8.39;80.56;100316.28;5012576;28;20396;-74
2022/12/30 04:57:40;;;;;;;3.23;0.90;;;;;;;8.40;79.88;100317.09;5012924;28;20391;-74
2022/12/30 05:00:06;;;;;;;2.20;0.70;;;;;;;8.33;80.40;100326.13;5012489;28;20460;-74
2022/12/30 05:02:32;;;;;;;2.55;0.60;;;;;;;8.34;80.24;100327.78;5006092;28;20416;-73
2022/12/30 05:04:57;;;;;;;0.93;0.50;;;;;;;8.36;79.64;100332.13;5012488;28;20400;-74
2022/12/30 05:07:22;;;;;;;2.93;0.90;;;;;;;8.36;79.79;100329.41;5012356;28;20808;-74
2022/12/30 05:09:48;;;;;;;1.27;0.80;;;;;;;8.34;80.09;100327.78;5012484;28;20408;-73
2022/12/30 05:12:13;;;;;;;2.38;0.80;;;;;;;8.33;79.79;100330.72;5011349;28;20396;-74
2022/12/30 05:14:38;;;;;;;2.10;0.87;;;;;;;8.31;79.76;100328.25;5012393;28;20483;-74
2022/12/30 05:17:04;;;;;;;1.13;0.70;;;;;;;8.30;79.90;100331.16;5012139;28;20401;-74
2022/12/30 05:19:30;;;;;;;1.83;0.70;;;;;;;8.27;79.95;100327.03;5012372;28;20381;-74
2022/12/30 05:21:55;;;;;;;3.65;0.60;;;;;;;8.28;79.59;100319.78;5012104;28;20768;-74
2022/12/30 05:27:05;;;;;;;1.55;0.80;;;;;;;8.26;79.87;100333.50;5011675;28;20468;-74
2022/12/30 05:29:30;;;;;;;2.47;0.60;;;;;;;8.26;79.58;100333.50;5012309;28;20491;-73
2022/12/30 05:31:55;;;;;;;2.87;0.70;;;;;;;8.26;79.90;100328.09;5011961;28;20907;-74
2022/12/30 05:34:20;;;;;;;3.67;0.90;;;;;;;8.24;79.63;100334.75;5011954;28;20397;-74
2022/12/30 05:36:46;;;;;;;2.70;1.13;;;;;;;8.21;79.45;100336.06;5012248;28;20443;-73
2022/12/30 05:39:12;;;;;;;2.50;1.30;;;;;;;8.20;79.31;100339.00;5012269;28;20392;-73
2022/12/30 05:41:37;;;;;;;2.30;0.75;;;;;;;8.19;79.28;100340.03;5010576;28;20440;-74
2022/12/30 05:44:03;;;;;;;3.20;1.00;;;;;;;8.15;79.79;100339.69;5012005;28;20393;-74
2022/12/30 05:46:28;;;;;;;0.80;0.73;;;;;;;8.15;79.68;100344.25;5010594;28;20385;-73
2022/12/30 05:48:53;;;;;;;2.70;0.70;;;;;;;8.10;79.29;100331.44;5011858;28;20381;-74
2022/12/30 05:51:18;;;;;;;2.20;0.70;;;;;;;8.05;79.08;100325.94;5011824;28;20482;-74
2022/12/30 05:53:44;;;;;;;3.35;0.90;;;;;;;8.04;79.64;100331.56;5012058;28;20847;-74
2022/12/30 05:56:09;;;;;;;1.60;0.70;;;;;;;8.03;79.47;100336.16;5013354;28;20397;-74
2022/12/30 05:58:34;;;;;;;2.90;1.05;;;;;;;8.00;79.55;100341.19;5015983;28;20397;-74
2022/12/30 06:01:00;;;;;;;2.63;1.13;;;;;;;8.00;79.43;100352.78;5015934;28;20423;-74
2022/12/30 06:03:25;;;;;;;5.57;2.60;;;;;;;7.99;79.35;100364.66;5015801;28;20470;-74
2022/12/30 06:05:58;;;;;;;11.23;4.20;;;;;;;7.93;79.41;100365.56;5016008;28;20779;-74
2022/12/30 06:08:23;;;;;;;4.13;3.10;;;;;;;7.90;79.15;100366.03;5015813;28;20756;-74
2022/12/30 06:10:48;;;;;;;3.40;1.03;;;;;;;7.83;78.93;100374.22;5014309;28;20859;-74
2022/12/30 06:13:14;;;;;;;3.27;0.80;;;;;;;7.76;79.42;100367.25;5008332;28;20397;-74
2022/12/30 06:15:39;;;;;;;1.13;1.03;;;;;;;7.71;79.27;100359.00;5015725;28;20947;-73
2022/12/30 06:18:04;;;;;;;0.83;0.80;;;;;;;7.65;78.92;100352.66;5014003;28;20409;-73
2022/12/30 06:20:33;;;;;;;1.70;0.60;;;;;;;7.61;79.06;100356.03;5015796;28;20393;-74
2022/12/30 06:22:59;;;;;;;4.55;0.80;;;;;;;7.56;79.01;100358.59;5015295;28;20443;-73
2022/12/30 06:25:24;;;;;;;2.27;0.80;;;;;;;7.53;79.02;100367.16;5014315;28;20421;-73
2022/12/30 06:27:49;;;;;;;2.00;1.40;;;;;;;7.51;78.77;100361.19;5015559;28;20393;-74
2022/12/30 06:30:15;;;;;;;2.37;0.80;;;;;;;7.47;78.51;100362.66;5012940;28;20403;-73
2022/12/30 06:32:40;;;;;;;1.80;0.77;;;;;;;7.43;78.61;100356.91;5015092;28;20412;-74
2022/12/30 06:35:06;;;;;;;1.17;0.87;;;;;;;7.40;77.95;100365.44;5015352;28;20487;-73
2022/12/30 06:37:31;;;;;;;1.20;0.52;;;;;;;7.38;78.15;100375.63;5015374;28;20385;-73
2022/12/30 06:39:57;;;;;;;1.60;0.65;;;;;;;7.38;78.13;100383.72;5015317;28;20443;-73
2022/12/30 06:42:22;;;;;;;1.30;0.67;;;;;;;7.38;78.41;100372.09;5014949;28;20424;-74
2022/12/30 06:44:47;;;;;;;3.13;0.77;;;;;;;7.32;78.37;100363.03;5014086;28;20405;-71
2022/12/30 06:47:12;;;;;;;0.90;0.70;;;;;;;7.27;78.12;100361.06;5015003;28;20408;-74
2022/12/30 06:49:38;;;;;;;1.47;0.70;;;;;;;7.26;78.60;100363.97;5015002;28;20456;-73
2022/12/30 06:52:03;;;;;;;2.50;0.50;;;;;;;7.23;78.26;100365.25;5015252;28;20408;-72
2022/12/30 06:54:28;;;;;;;4.27;0.90;;;;;;;7.22;78.30;100366.28;5015023;28;20388;-73
2022/12/30 06:56:54;;;;;;;1.90;0.83;;;;;;;7.22;77.73;100366.28;5015060;28;20408;-73
2022/12/30 06:59:19;;;;;;;0.40;0.40;;;;;;;7.20;78.16;100373.78;5014671;28;20393;-73
2022/12/30 07:01:44;;;;;;;2.87;1.03;;;;;;;7.20;78.04;100372.94;5014676;28;20412;-73
2022/12/30 07:04:09;;;;;;;2.47;0.70;;;;;;;7.18;77.89;100364.25;5014997;28;20479;-73
2022/12/30 07:06:35;;;;;;;2.43;0.83;;;;;;;7.17;78.08;100370.69;5014011;28;20397;-73
2022/12/30 07:09:00;;;;;;;0.70;0.70;;;;;;;7.15;78.10;100362.84;5014600;28;20403;-73
2022/12/30 07:11:25;;;;;;;2.70;1.30;;;;;;;7.14;77.37;100352.28;5013879;28;20488;-72
2022/12/30 07:13:50;;;;;;;1.70;0.90;;;;;;;7.13;78.20;100353.34;5014679;28;20397;-73
2022/12/30 07:16:16;;;;;;;3.90;1.03;;;;;;;7.12;77.75;100351.69;5013071;28;20904;-73
2022/12/30 07:18:41;;;;;;;2.67;1.08;;;;;;;7.11;77.19;100353.53;5014452;28;20401;-72
2022/12/30 07:21:06;;;;;;;0.80;0.73;;;;;;;7.11;77.60;100352.75;5014527;28;20444;-73
2022/12/30 07:23:31;;;;;;;1.40;0.90;;;;;;;7.10;77.50;100349.22;5014556;28;20744;-72
2022/12/30 07:25:57;;;;;;;3.90;0.90;;;;;;;7.11;77.95;100341.97;5013139;28;20487;-72
2022/12/30 07:28:22;;;;;;;4.30;1.30;;;;;;;7.10;77.79;100338.44;5014372;28;20456;-72
2022/12/30 07:30:47;;;;;;;3.50;1.23;;;;;;;7.04;77.35;100339.34;5012767;28;20815;-73
2022/12/30 07:33:12;;;;;;;2.70;1.20;;;;;;;6.96;77.87;100339.63;5011149;28;20405;-73
2022/12/30 07:35:38;;;;;;;1.97;1.30;;;;;;;6.98;77.61;100334.03;5012149;28;20796;-73
2022/12/30 07:38:03;;;;;;;3.07;1.23;;;;;;;7.01;77.80;100347.88;4995483;28;20425;-72
2022/12/30 07:40:28;;;;;;;5.07;2.93;;;;;;;7.05;77.45;100346.38;5001843;28;20437;-72
2022/12/30 07:42:53;;;;;;;7.07;2.70;;;;;;;7.07;77.84;100348.84;5011127;28;20435;-72
2022/12/30 07:45:19;;;;;;;8.17;2.93;;;;;;;7.07;78.02;100349.69;5011650;28;20466;-72
2022/12/30 07:47:45;;;;;;;6.50;3.60;;;;;;;7.11;77.00;100341.97;5011044;28;20543;-72
2022/12/30 07:50:11;;;;;;;4.13;2.57;;;;;;;7.09;77.16;100342.19;5010460;28;20405;-72
2022/12/30 07:52:37;;;;;;;6.70;3.05;;;;;;;7.11;77.26;100340.06;5011097;28;20424;-72
2022/12/30 07:55:03;;;;;;;7.15;2.90;;;;;;;7.13;77.46;100339.84;5005362;28;20384;-72
2022/12/30 07:57:28;;;;;;;4.60;2.70;;;;;;;7.16;77.16;100336.72;5013768;28;20425;-72
2022/12/30 07:59:54;;;;;;;4.23;2.87;;;;;;;7.19;77.56;100330.88;5013043;28;20428;-73
2022/12/30 08:02:19;;;;;;;4.40;2.28;;;;;;;7.22;77.54;100328.53;5011984;28;20435;-72
2022/12/30 08:04:44;;;;;;;5.30;2.75;;;;;;;7.25;77.05;100332.66;5013554;28;20484;-72
2022/12/30 08:07:10;;;;;;;7.80;2.57;;;;;;;7.26;76.86;100329.75;5013411;28;20393;-72
2022/12/30 08:09:36;;;;;;;6.43;4.13;;;;;;;7.27;77.54;100330.56;5013606;28;20396;-73
2022/12/30 08:12:02;;;;;;;3.10;1.88;;;;;;;7.27;77.06;100320.63;5013438;28;20476;-72
2022/12/30 08:14:27;;;;;;;1.73;1.27;;;;;;;7.27;77.57;100311.72;5013381;28;20484;-72
2022/12/30 08:16:53;;;;;;;1.43;1.30;;;;;;;7.27;77.65;100309.00;5012331;28;20512;-72
2022/12/30 08:19:18;;;;;;;2.80;0.90;;;;;;;7.26;77.50;100308.19;5012555;28;20784;-73
2022/12/30 08:21:43;;;;;;;2.70;1.33;;;;;;;7.29;77.25;100301.50;5009343;28;20424;-73
2022/12/30 08:24:09;;;;;;;3.93;3.10;;;;;;;7.32;76.69;100301.06;5006043;28;20408;-73
2022/12/30 08:26:35;;;;;;;3.92;3.13;;;;;;;7.36;76.93;100294.16;5012313;28;20404;-72
2022/12/30 08:29:00;;;;;;;2.78;2.58;;;;;;;7.41;76.97;100275.41;5011598;28;20405;-72
2022/12/30 08:31:27;;;;;;;2.78;1.42;;;;;;;7.50;77.03;100276.75;5006094;28;20418;-72
2022/12/30 08:33:53;;;;;;;2.50;1.10;;;;;;;7.63;76.77;100267.66;5011081;28;20448;-73
2022/12/30 08:36:22;;;;;;;2.70;1.20;;;;;;;7.80;76.40;100268.63;5012928;28;20861;-73
2022/12/30 08:38:50;;;;;;;2.33;1.25;;;;;;;7.94;76.10;100267.34;5010568;28;20413;-72
2022/12/30 08:41:20;;;;;;;1.90;1.30;;;;;;;8.00;76.14;100263.72;5010637;28;20411;-72
2022/12/30 08:43:46;;;;;;;1.93;1.10;;;;;;;8.13;75.86;100262.72;5000591;28;20428;-73
2022/12/30 08:46:13;;;;;;;1.58;0.90;;;;;;;8.47;75.00;100261.91;5012142;28;20906;-72
2022/12/30 08:48:38;;;;;;;3.67;1.02;;;;;;;8.69;73.98;100257.53;5007132;28;20491;-73
2022/12/30 08:51:04;;;;;;;2.30;1.23;;;;;;;8.68;74.68;100255.91;5008211;28;20867;-73
2022/12/30 08:53:29;;;;;;;3.47;1.30;;;;;;;8.60;74.50;100253.56;5010151;28;20401;-73
2022/12/30 08:56:04;;;;;;;3.20;1.37;;;;;;;8.54;74.59;100257.19;5022928;28;20493;-73
2022/12/30 08:58:30;;;;;;;2.13;1.50;;;;;;;8.46;74.96;100249.47;5018967;28;20408;-73
2022/12/30 09:00:56;;;;;;;3.28;1.08;;;;;;;8.47;75.47;100256.50;5023845;28;20758;-73
2022/12/30 09:03:21;;;;;;;2.53;0.90;;;;;;;8.62;75.12;100242.53;5020961;28;20403;-73
2022/12/30 09:05:52;;;;;;;1.77;0.90;;;;;;;8.66;75.13;100247.19;5026347;28;20724;-73
2022/12/30 09:08:17;;;;;;;2.72;1.48;;;;;;;8.61;75.93;100238.16;5020312;28;20436;-72
2022/12/30 09:10:42;;;;;;;3.00;0.90;;;;;;;8.70;75.73;100234.03;5026663;28;20387;-73
2022/12/30 09:13:07;;;;;;;3.33;0.80;;;;;;;8.78;75.90;100234.50;5023685;28;20393;-73
2022/12/30 09:15:33;;;;;;;2.35;0.60;;;;;;;8.88;75.55;100220.38;5024111;28;20409;-73
2022/12/30 09:17:58;;;;;;;2.47;1.13;;;;;;;9.01;75.41;100230.09;5029542;28;20387;-72
2022/12/30 09:20:23;;;;;;;2.23;1.00;;;;;;;9.06;75.19;100222.91;5026534;28;20387;-73
2022/12/30 09:22:48;;;;;;;4.73;1.60;;;;;;;9.08;75.09;100228.06;5011629;28;20452;-73
2022/12/30 09:25:14;;;;;;;2.93;2.47;;;;;;;9.08;75.28;100217.25;5008052;28;20985;-72
2022/12/30 09:27:39;;;;;;;2.87;2.03;;;;;;;9.11;75.44;100219.47;5005617;28;20499;-72
2022/12/30 09:30:05;;;;;;;4.67;2.40;;;;;;;9.15;75.32;100223.34;5021017;28;20406;-73
2022/12/30 09:32:30;;;;;;;4.40;1.10;;;;;;;9.14;75.91;100213.59;5021700;28;20478;-72
2022/12/30 09:34:56;;;;;;;1.70;0.70;;;;;;;9.20;75.70;100213.44;5023505;28;20460;-73
2022/12/30 09:37:21;;;;;;;2.27;1.50;;;;;;;9.08;75.80;100209.16;5020859;28;20894;-72
2022/12/30 09:39:47;;;;;;;3.03;0.93;;;;;;;9.01;76.13;100206.59;5017270;28;20408;-72
2022/12/30 09:45:31;;;;;;;4.38;1.08;;;;;;;9.16;76.49;100201.47;5018992;28;20909;-73
2022/12/30 09:48:02;;;;;;;1.50;0.75;;;;;;;9.27;76.41;100203.31;5025680;28;20817;-72
2022/12/30 09:50:42;;;;;;;6.63;1.70;;;;;;;9.46;76.13;100198.50;5013954;28;20400;-74
2022/12/30 09:53:29;;;;;;;2.40;0.82;;;;;;;9.77;75.63;100195.25;5006762;28;20923;-72
2022/12/30 09:56:00;;;;;;;3.35;1.08;;;;;;;9.91;74.96;100193.03;5005179;28;20405;-73
2022/12/30 09:58:30;;;;;;;2.42;0.93;;;;;;;9.90;75.50;100184.09;5004248;28;20964;-73
2022/12/30 10:01:13;;;;;;;10.60;2.50;;;;;;;10.13;74.96;100166.84;5004844;28;20500;-73
2022/12/30 10:03:38;;;;;;;6.13;2.85;;;;;;;10.37;74.22;100160.16;5010066;28;20416;-73
2022/12/30 10:06:08;;;;;;;5.90;2.93;;;;;;;10.60;73.34;100155.59;5011182;28;20405;-73
2022/12/30 10:09:14;;;;;;;8.17;3.77;;;;;;;10.58;72.93;100150.41;5007893;28;20405;-73
2022/12/30 10:12:02;;;;;;;5.43;3.40;;;;;;;10.48;72.99;100144.03;5011731;28;20393;-73
2022/12/30 10:15:07;;;;;;;5.05;3.75;;;;;;;10.40;73.09;100145.31;4999323;28;20492;-73
2022/12/30 10:18:00;;;;;;;5.13;2.53;;;;;;;10.29;73.66;100138.94;5006058;28;20930;-73
2022/12/30 10:20:47;;;;;;;5.28;2.75;;;;;;;10.26;74.02;100130.50;5005915;28;20424;-73
2022/12/30 10:23:34;;;;;;;5.50;2.47;;;;;;;10.30;73.64;100124.34;5005408;28;20515;-73
2022/12/30 10:26:14;;;;;;;3.05;2.40;;;;;;;10.44;73.59;100118.53;5010332;28;20401;-73
2022/12/30 10:28:46;;;;;;;3.00;2.05;;;;;;;10.62;72.89;100121.72;5011642;28;20389;-73
2022/12/30 10:31:24;;;;;;;1.70;1.70;;;;;;;10.73;72.26;100125.38;5011035;28;20918;-74
2022/12/30 10:33:52;;;;;;;3.22;1.77;;;;;;;10.67;72.32;100115.56;5009644;28;20408;-73
2022/12/30 10:36:17;;;;;;;3.05;1.60;;;;;;;10.63;72.45;100131.50;5008630;28;20392;-73
2022/12/30 10:38:43;;;;;;;3.80;1.87;;;;;;;10.63;72.62;100128.81;5006850;28;20769;-74
2022/12/30 10:41:35;;;;;;;5.50;2.30;;;;;;;10.66;72.77;100127.47;5005075;28;20425;-74
2022/12/30 10:44:36;;;;;;;10.55;3.88;;;;;;;10.66;72.44;100130.19;5014956;28;20395;-73
2022/12/30 10:47:23;;;;;;;10.07;3.00;;;;;;;10.63;72.77;100134.22;5004688;28;20415;-72
2022/12/30 10:50:13;;;;;;;3.83;2.17;;;;;;;10.65;72.90;100121.22;5012835;28;20405;-73
2022/12/30 10:52:38;;;;;;;5.13;2.10;;;;;;;10.70;72.60;100120.47;5011560;28;20436;-73
2022/12/30 10:55:18;;;;;;;6.78;1.70;;;;;;;10.78;72.52;100107.28;5011077;28;20933;-73
2022/12/30 10:57:44;;;;;;;4.10;1.70;;;;;;;10.84;72.56;100100.00;5008511;28;20495;-73
2022/12/30 11:00:10;;;;;;;4.60;1.50;;;;;;;10.85;72.39;100091.63;5014939;28;20568;-73
2022/12/30 11:02:37;;;;;;;4.22;1.48;;;;;;;10.84;72.26;100079.16;5012379;28;20904;-72
2022/12/30 11:05:31;;;;;;;5.13;1.65;;;;;;;10.85;72.42;100074.56;5011503;28;20401;-73
2022/12/30 11:07:58;;;;;;;4.30;1.63;;;;;;;10.74;72.85;100075.50;5014671;28;20397;-73
2022/12/30 11:10:24;;;;;;;4.00;1.60;;;;;;;10.76;72.77;100071.50;5014679;28;20400;-73
2022/12/30 11:15:54;;;;;;;2.65;1.33;;;;;;;10.86;72.95;100057.22;5014199;28;20443;-72
2022/12/30 11:18:25;;;;;;;1.57;1.20;;;;;;;10.89;72.61;100046.69;5014153;28;20871;-73
2022/12/30 11:20:53;;;;;;;2.00;1.27;;;;;;;10.90;72.76;100042.88;5011779;28;20453;-73
2022/12/30 11:23:31;;;;;;;3.25;1.67;;;;;;;10.97;72.54;100045.38;5012257;28;20408;-72
2022/12/30 11:25:58;;;;;;;1.50;1.10;;;;;;;10.97;72.49;100042.66;5012500;28;20454;-72
2022/12/30 11:28:48;;;;;;;2.10;1.58;;;;;;;10.96;72.36;100045.66;5003678;28;20413;-73
2022/12/30 11:31:16;;;;;;;3.67;1.60;;;;;;;10.89;72.53;100037.72;5008165;28;20744;-73
2022/12/30 11:33:49;;;;;;;1.67;1.48;;;;;;;10.85;72.64;100033.91;5011086;28;20932;-73
2022/12/30 11:36:26;;;;;;;3.72;1.90;;;;;;;10.83;72.66;100026.00;5009432;28;20409;-72
2022/12/30 11:38:51;;;;;;;3.90;1.77;;;;;;;10.78;72.57;100030.56;5005582;28;20781;-72
2022/12/30 11:41:19;;;;;;;3.90;1.90;;;;;;;10.70;72.90;100022.91;5012547;28;20409;-72
2022/12/30 11:44:10;;;;;;;5.25;2.03;;;;;;;10.72;72.79;100020.75;5011473;28;20417;-72
2022/12/30 11:46:43;;;;;;;6.75;2.20;;;;;;;10.70;72.85;100015.56;5003880;28;20944;-72
2022/12/30 11:49:26;;;;;;;4.10;2.08;;;;;;;10.71;72.92;100025.34;5004025;28;20405;-73
2022/12/30 11:51:53;;;;;;;2.72;2.00;;;;;;;10.65;73.17;100015.53;5021760;28;20881;-72
2022/12/30 11:54:22;;;;;;;4.63;2.30;;;;;;;10.63;73.12;100006.88;5006144;28;20421;-72
2022/12/30 11:56:57;;;;;;;3.80;2.33;;;;;;;10.68;73.22;99990.63;5005157;28;20412;-72
2022/12/30 11:59:26;;;;;;;4.33;2.20;;;;;;;10.68;73.02;99992.53;5003411;28;20407;-72
2022/12/30 12:01:56;;;;;;;3.30;2.33;;;;;;;10.70;73.22;99996.59;5018324;28;20887;-71
2022/12/30 12:04:32;;;;;;;5.35;2.13;;;;;;;10.75;73.23;99985.81;5009212;28;20958;-72
2022/12/30 12:07:02;;;;;;;3.22;2.10;;;;;;;10.79;73.22;99986.97;5006451;28;20469;-72
2022/12/30 12:09:42;;;;;;;3.78;2.03;;;;;;;10.83;73.40;99977.22;5011924;28;20409;-72
2022/12/30 12:12:12;;;;;;;3.43;1.80;;;;;;;10.84;73.18;99976.16;5011286;28;20468;-72
2022/12/30 12:15:10;;;;;;;2.50;2.27;;;;;;;10.85;73.24;99977.78;5008249;28;20592;-72
2022/12/30 12:17:56;;;;;;;4.05;2.40;;;;;;;10.85;73.19;99966.94;5012087;28;20801;-72
2022/12/30 12:20:40;;;;;;;4.78;2.78;;;;;;;10.86;73.29;99959.63;5012519;28;20459;-72
2022/12/30 12:23:14;;;;;;;5.70;3.00;;;;;;;10.85;73.31;99953.41;5008577;28;20819;-72
2022/12/30 12:25:46;;;;;;;2.90;2.50;;;;;;;10.87;73.29;99937.69;5013182;28;20397;-73
2022/12/30 12:28:13;;;;;;;5.15;3.47;;;;;;;10.90;73.48;99948.00;5012928;28;20397;-72
2022/12/30 12:30:53;;;;;;;9.65;3.70;;;;;;;10.94;73.03;99954.53;5011510;28;20828;-73
2022/12/30 12:33:30;;;;;;;4.93;3.20;;;;;;;11.01;72.94;99954.31;5012638;28;20436;-72
2022/12/30 12:36:16;;;;;;;5.82;3.20;;;;;;;11.07;72.87;99953.28;5012123;28;20409;-72